createdAt,value
2019-01-15T00:01:10.484Z,1.83
2019-01-15T00:03:39.480Z,2.30
2019-01-15T00:06:08.460Z,2.90
2019-01-15T00:08:37.316Z,2.67
2019-01-15T00:11:06.380Z,1.57
2019-01-15T00:13:35.367Z,1.97
2019-01-15T00:16:04.508Z,2.60
2019-01-15T00:18:33.490Z,1.70
2019-01-15T00:21:02.451Z,1.70
2019-01-15T00:23:31.442Z,1.73
2019-01-15T00:26:00.540Z,3.03
2019-01-15T00:28:29.371Z,1.93
2019-01-15T00:30:58.241Z,1.80
2019-01-15T00:33:27.210Z,2.20
2019-01-15T00:35:56.042Z,1.83
2019-01-15T00:38:24.991Z,1.40
2019-01-15T00:40:53.827Z,1.97
2019-01-15T00:43:22.826Z,1.80
2019-01-15T00:45:51.727Z,1.83
2019-01-15T00:48:20.631Z,1.70
2019-01-15T00:50:50.051Z,1.83
2019-01-15T00:53:19.032Z,1.73
2019-01-15T00:55:47.935Z,2.00
2019-01-15T00:58:16.868Z,2.60
2019-01-15T01:00:45.754Z,1.80
2019-01-15T01:03:14.820Z,2.03
2019-01-15T01:05:43.743Z,1.90
2019-01-15T01:08:15.441Z,2.40
2019-01-15T01:10:44.438Z,1.93
2019-01-15T01:13:13.329Z,1.97
2019-01-15T01:15:42.248Z,1.90
2019-01-15T01:18:11.195Z,1.97
2019-01-15T01:20:40.141Z,1.57
2019-01-15T01:23:09.071Z,1.80
2019-01-15T01:25:37.936Z,1.60
2019-01-15T01:28:06.804Z,1.90
2019-01-15T01:30:35.683Z,1.77
2019-01-15T01:33:04.678Z,2.37
2019-01-15T01:35:33.645Z,1.40
2019-01-15T01:38:02.546Z,2.00
2019-01-15T01:40:31.639Z,1.90
2019-01-15T01:43:00.630Z,2.03
2019-01-15T01:45:29.518Z,1.70
2019-01-15T01:47:58.407Z,1.80
2019-01-15T01:50:27.628Z,1.43
2019-01-15T01:52:56.775Z,1.67
2019-01-15T01:55:25.623Z,1.50
2019-01-15T01:57:54.642Z,1.67
2019-01-15T02:00:23.636Z,1.90
2019-01-15T02:02:52.705Z,1.93
2019-01-15T02:05:21.613Z,1.30
2019-01-15T02:07:50.607Z,1.90
2019-01-15T02:10:20.549Z,1.90
2019-01-15T02:12:50.115Z,2.10
2019-01-15T02:15:25.659Z,2.20
2019-01-15T02:17:54.655Z,1.80
2019-01-15T02:20:25.105Z,1.67
2019-01-15T02:22:54.278Z,1.47
2019-01-15T02:25:23.274Z,1.50
2019-01-15T02:27:54.335Z,1.70
2019-01-15T02:30:25.550Z,2.13
2019-01-15T02:32:54.970Z,1.60
2019-01-15T02:35:23.938Z,2.40
2019-01-15T02:37:52.920Z,2.40
2019-01-15T02:40:22.012Z,1.80
2019-01-15T02:42:51.120Z,1.90
2019-01-15T02:45:21.118Z,3.07
2019-01-15T02:47:50.169Z,2.30
2019-01-15T02:50:20.274Z,2.20
2019-01-15T02:52:49.286Z,2.20
2019-01-15T02:55:18.276Z,1.90
2019-01-15T02:57:47.202Z,3.30
2019-01-15T03:00:34.485Z,2.33
2019-01-15T03:03:03.684Z,3.30
2019-01-15T03:05:32.527Z,2.10
2019-01-15T03:08:01.344Z,2.80
2019-01-15T03:10:30.335Z,3.00
2019-01-15T03:12:59.305Z,3.00
2019-01-15T03:15:28.233Z,4.10
2019-01-15T03:17:57.153Z,3.23
2019-01-15T03:20:26.149Z,2.77
2019-01-15T03:22:55.072Z,2.73
2019-01-15T03:25:23.976Z,3.40
2019-01-15T03:27:52.951Z,3.10
2019-01-15T03:30:25.429Z,3.10
2019-01-15T03:32:54.537Z,2.63
2019-01-15T03:35:23.493Z,2.97
2019-01-15T03:37:52.626Z,3.87
2019-01-15T03:40:25.939Z,5.20
2019-01-15T03:43:02.898Z,4.67
2019-01-15T03:45:26.198Z,4.30
2019-01-15T03:47:55.175Z,3.90
2019-01-15T03:50:24.094Z,4.57
2019-01-15T03:52:53.078Z,5.70
2019-01-15T03:55:22.046Z,4.60
2019-01-15T03:57:51.122Z,4.40
2019-01-15T04:00:22.185Z,4.23
2019-01-15T04:02:51.359Z,5.30
2019-01-15T04:05:20.177Z,5.00
2019-01-15T04:07:52.720Z,5.60
2019-01-15T04:10:21.693Z,5.27
2019-01-15T04:12:50.593Z,5.30
2019-01-15T04:15:19.693Z,6.83
2019-01-15T04:17:48.493Z,5.30
2019-01-15T04:20:17.490Z,5.90
2019-01-15T04:22:46.511Z,5.80
2019-01-15T04:25:15.956Z,6.10
2019-01-15T04:27:44.767Z,6.17
2019-01-15T04:30:20.018Z,7.10
2019-01-15T04:32:48.984Z,7.07
2019-01-15T04:35:17.959Z,6.80
2019-01-15T04:37:47.085Z,6.70
2019-01-15T04:40:18.464Z,6.30
2019-01-15T04:42:47.521Z,7.30
2019-01-15T04:45:17.947Z,6.57
2019-01-15T04:47:46.970Z,6.63
2019-01-15T04:50:16.628Z,7.10
2019-01-15T04:52:49.863Z,6.10
2019-01-15T04:55:18.864Z,7.10
2019-01-15T04:57:47.681Z,6.50
2019-01-15T05:00:17.762Z,6.80
2019-01-15T05:02:46.815Z,6.37
2019-01-15T05:05:16.210Z,5.97
2019-01-15T05:07:45.217Z,6.97
2019-01-15T05:10:14.284Z,6.93
2019-01-15T05:12:43.262Z,7.57
2019-01-15T05:15:13.658Z,6.53
2019-01-15T05:17:42.734Z,6.93
2019-01-15T05:20:13.893Z,6.80
2019-01-15T05:22:42.918Z,5.70
2019-01-15T05:25:14.635Z,6.83
2019-01-15T05:27:43.565Z,6.13
2019-01-15T05:30:16.323Z,7.03
2019-01-15T05:32:45.280Z,6.60
2019-01-15T05:35:14.299Z,6.40
2019-01-15T05:37:43.311Z,6.37
2019-01-15T05:40:12.523Z,6.60
2019-01-15T05:42:41.782Z,5.80
2019-01-15T05:45:14.322Z,5.33
2019-01-15T05:47:43.511Z,6.43
2019-01-15T05:50:15.968Z,7.30
2019-01-15T05:52:44.987Z,6.57
2019-01-15T05:55:14.058Z,6.70
2019-01-15T05:57:43.054Z,5.30
2019-01-15T06:00:12.246Z,7.67
2019-01-15T06:02:41.211Z,7.33
2019-01-15T06:05:10.999Z,7.50
2019-01-15T06:07:39.908Z,6.17
2019-01-15T06:10:10.947Z,5.97
2019-01-15T06:12:39.939Z,5.13
2019-01-15T06:15:10.433Z,8.00
2019-01-15T06:17:39.346Z,7.10
2019-01-15T06:20:11.280Z,6.77
2019-01-15T06:22:40.322Z,5.83
2019-01-15T06:25:09.719Z,6.57
2019-01-15T06:27:38.975Z,5.43
2019-01-15T06:30:10.674Z,5.63
2019-01-15T06:32:39.589Z,5.03
2019-01-15T06:35:08.584Z,5.37
2019-01-15T06:37:37.478Z,7.00
2019-01-15T06:40:08.285Z,5.80
2019-01-15T06:42:37.381Z,5.10
2019-01-15T06:45:09.782Z,6.00
2019-01-15T06:47:38.782Z,6.03
2019-01-15T06:50:07.883Z,4.30
2019-01-15T06:52:36.900Z,5.53
2019-01-15T06:55:07.284Z,4.90
2019-01-15T06:57:36.127Z,5.40
2019-01-15T07:00:07.907Z,5.20
2019-01-15T07:02:36.756Z,5.20
2019-01-15T07:05:06.576Z,5.33
2019-01-15T07:07:35.697Z,5.20
2019-01-15T07:10:06.510Z,4.90
2019-01-15T07:12:35.410Z,4.70
2019-01-15T07:15:05.108Z,4.13
2019-01-15T07:17:33.924Z,4.53
2019-01-15T07:20:02.914Z,4.63
2019-01-15T07:22:31.733Z,4.37
2019-01-15T07:25:00.728Z,4.10
2019-01-15T07:27:29.617Z,4.50
2019-01-15T07:29:58.467Z,4.97
2019-01-15T07:32:27.382Z,4.50
2019-01-15T07:34:56.188Z,3.90
2019-01-15T07:37:25.079Z,3.60
2019-01-15T07:39:53.964Z,3.50
2019-01-15T07:42:22.847Z,3.37
2019-01-15T07:44:51.860Z,3.27
2019-01-15T07:47:20.769Z,4.00
2019-01-15T07:49:49.582Z,3.23
2019-01-15T07:52:18.551Z,3.60
2019-01-15T07:54:47.589Z,4.03
2019-01-15T07:57:16.409Z,3.80
2019-01-15T07:59:45.333Z,3.10
2019-01-15T08:02:16.191Z,3.50
2019-01-15T08:04:45.076Z,4.37
2019-01-15T08:07:14.182Z,3.87
2019-01-15T08:09:43.161Z,3.30
2019-01-15T08:12:12.141Z,4.37
2019-01-15T08:14:41.166Z,3.43
2019-01-15T08:17:10.007Z,3.77
2019-01-15T08:19:38.973Z,2.73
2019-01-15T08:22:07.935Z,3.70
2019-01-15T08:24:36.937Z,3.77
2019-01-15T08:27:05.924Z,3.03
2019-01-15T08:29:34.925Z,2.60
2019-01-15T08:32:03.910Z,3.40
2019-01-15T08:34:32.733Z,2.20
2019-01-15T08:37:01.647Z,3.33
2019-01-15T08:39:30.538Z,3.10
2019-01-15T08:41:59.482Z,2.73
2019-01-15T08:44:28.943Z,3.13
2019-01-15T08:46:57.852Z,3.20
2019-01-15T08:49:26.765Z,2.47
2019-01-15T08:51:55.907Z,3.27
2019-01-15T08:54:26.338Z,3.10
2019-01-15T08:56:55.394Z,3.10
2019-01-15T08:59:24.254Z,3.23
2019-01-15T09:01:53.270Z,3.13
2019-01-15T09:04:22.181Z,2.73
2019-01-15T09:06:51.114Z,2.77
2019-01-15T09:09:19.946Z,3.27
2019-01-15T09:11:48.916Z,3.00
2019-01-15T09:14:17.753Z,2.80
2019-01-15T09:16:46.723Z,3.43
2019-01-15T09:19:15.721Z,3.77
2019-01-15T09:21:44.601Z,3.10
2019-01-15T09:24:13.495Z,2.80
2019-01-15T09:26:42.493Z,2.90
2019-01-15T09:29:11.313Z,4.10
2019-01-15T09:31:40.295Z,3.63
2019-01-15T09:34:09.317Z,4.73
2019-01-15T09:36:38.235Z,2.70
2019-01-15T09:39:09.054Z,4.50
2019-01-15T09:41:38.616Z,2.80
2019-01-15T09:44:07.527Z,4.10
2019-01-15T09:46:36.368Z,3.10
2019-01-15T09:49:05.377Z,2.87
2019-01-15T09:51:34.362Z,3.10
2019-01-15T09:54:03.363Z,3.20
2019-01-15T09:56:32.218Z,3.40
2019-01-15T09:59:01.199Z,3.90
2019-01-15T10:01:30.225Z,3.47
2019-01-15T10:03:59.274Z,2.40
2019-01-15T10:06:28.110Z,3.10
2019-01-15T10:08:56.925Z,2.90
2019-01-15T10:11:25.831Z,2.90
2019-01-15T10:13:54.823Z,2.83
2019-01-15T10:16:23.652Z,2.80
2019-01-15T10:18:52.546Z,3.20
2019-01-15T10:21:21.548Z,2.53
2019-01-15T10:23:50.539Z,3.17
2019-01-15T10:26:19.498Z,2.93
2019-01-15T10:28:48.494Z,3.37
2019-01-15T10:31:59.299Z,2.23
2019-01-15T10:34:35.031Z,3.33
2019-01-15T10:37:02.506Z,3.53
2019-01-15T10:39:31.422Z,3.20
2019-01-15T10:42:00.398Z,2.90
2019-01-15T10:44:29.522Z,3.03
2019-01-15T10:46:58.444Z,2.63
2019-01-15T10:49:27.390Z,2.40
2019-01-15T10:51:56.280Z,2.27
2019-01-15T10:54:25.215Z,2.40
2019-01-15T10:56:54.121Z,2.50
2019-01-15T10:59:23.027Z,3.17
2019-01-15T11:01:51.923Z,2.67
2019-01-15T11:04:20.726Z,2.70
2019-01-15T11:06:49.568Z,2.60
2019-01-15T11:09:18.401Z,2.63
2019-01-15T11:11:47.363Z,2.43
2019-01-15T11:14:18.670Z,2.83
2019-01-15T11:16:47.500Z,2.00
2019-01-15T11:19:16.346Z,2.10
2019-01-15T11:21:45.378Z,2.00
2019-01-15T11:24:14.199Z,2.77
2019-01-15T11:26:43.197Z,2.60
2019-01-15T11:29:12.100Z,2.77
2019-01-15T11:31:40.909Z,2.40
2019-01-15T11:34:09.914Z,2.30
2019-01-15T11:36:39.315Z,2.33
2019-01-15T11:39:09.918Z,2.73
2019-01-15T11:41:38.887Z,2.90
2019-01-15T11:44:07.845Z,2.77
2019-01-15T11:46:36.698Z,2.27
2019-01-15T11:49:05.535Z,2.97
2019-01-15T11:51:34.425Z,2.10
2019-01-15T11:54:03.296Z,2.90
2019-01-15T11:56:32.203Z,3.10
2019-01-15T11:59:01.286Z,2.90
2019-01-15T12:01:43.106Z,2.70
2019-01-15T12:04:26.116Z,2.63
2019-01-15T12:07:12.884Z,2.77
2019-01-15T12:09:54.279Z,2.10
2019-01-15T12:12:40.909Z,2.13
2019-01-15T12:15:35.190Z,2.30
2019-01-15T12:18:15.285Z,3.10
2019-01-15T12:21:00.048Z,1.90
2019-01-15T12:23:47.007Z,2.47
2019-01-15T12:26:22.107Z,3.50
2019-01-15T12:29:04.550Z,2.13
2019-01-15T12:31:51.531Z,2.53
2019-01-15T12:34:48.503Z,2.60
2019-01-15T12:37:35.575Z,2.70
2019-01-15T12:40:40.307Z,3.40
2019-01-15T12:43:30.890Z,2.30
2019-01-15T12:46:17.803Z,2.67
2019-01-15T12:49:11.941Z,2.70
2019-01-15T12:52:15.251Z,2.10
2019-01-15T12:55:06.164Z,2.20
2019-01-15T12:57:47.600Z,2.33
2019-01-15T13:00:47.755Z,3.00
2019-01-15T13:03:44.740Z,2.10
2019-01-15T13:06:47.816Z,2.07
2019-01-15T13:09:25.477Z,2.17
2019-01-15T13:12:16.356Z,2.70
2019-01-15T13:15:02.872Z,2.60
2019-01-15T13:17:43.129Z,2.70
2019-01-15T13:20:31.892Z,3.00
2019-01-15T13:23:19.886Z,3.57
2019-01-15T13:26:10.778Z,3.40
2019-01-15T13:28:57.524Z,3.23
2019-01-15T13:31:48.609Z,2.63
2019-01-15T13:34:29.684Z,2.03
2019-01-15T13:37:20.670Z,2.33
2019-01-15T13:40:00.855Z,3.10
2019-01-15T13:43:06.911Z,2.43
2019-01-15T13:45:53.343Z,2.20
2019-01-15T13:48:34.651Z,3.13
2019-01-15T13:51:31.515Z,2.47
2019-01-15T13:54:18.407Z,2.67
2019-01-15T13:57:14.123Z,2.30
2019-01-15T14:02:55.126Z,3.60
2019-01-15T14:05:49.141Z,3.73
2019-01-15T14:08:35.733Z,3.17
2019-01-15T14:11:27.287Z,2.30
2019-01-15T14:14:15.247Z,2.20
2019-01-15T14:16:51.595Z,3.07
2019-01-15T14:19:31.572Z,3.53
2019-01-15T14:22:18.424Z,4.40
2019-01-15T14:25:21.946Z,3.10
2019-01-15T14:28:02.883Z,3.10
2019-01-15T14:30:49.655Z,4.00
2019-01-15T14:33:27.174Z,3.13
2019-01-15T14:36:13.892Z,3.00
2019-01-15T14:39:20.223Z,3.50
2019-01-15T14:42:07.493Z,3.40
2019-01-15T14:45:13.851Z,4.50
2019-01-15T14:48:01.926Z,3.40
2019-01-15T14:50:48.488Z,3.10
2019-01-15T14:53:35.367Z,3.87
2019-01-15T14:56:32.700Z,3.60
2019-01-15T14:59:19.520Z,3.87
2019-01-15T15:02:07.514Z,3.03
2019-01-15T15:04:58.599Z,2.80
2019-01-15T15:07:45.506Z,2.47
2019-01-15T15:10:34.313Z,3.77
2019-01-15T15:13:31.516Z,4.37
2019-01-15T15:16:19.596Z,4.50
2019-01-15T15:19:08.849Z,2.50
2019-01-15T15:21:59.921Z,3.20
2019-01-15T15:24:51.231Z,3.63
2019-01-15T15:27:57.947Z,4.33
2019-01-15T15:30:44.642Z,3.53
2019-01-15T15:33:44.963Z,3.57
2019-01-15T15:36:42.475Z,5.00
2019-01-15T15:39:19.810Z,3.17
2019-01-15T15:42:16.328Z,3.53
2019-01-15T15:45:04.488Z,3.83
2019-01-15T15:47:58.655Z,3.30
2019-01-15T15:50:56.602Z,4.33
2019-01-15T15:53:50.637Z,3.67
2019-01-15T15:56:50.961Z,3.73
2019-01-15T15:59:48.074Z,4.40
2019-01-15T16:02:33.696Z,3.60
2019-01-15T16:05:21.799Z,3.50
2019-01-15T16:08:18.730Z,3.63
2019-01-15T16:11:05.410Z,4.70
2019-01-15T16:13:52.384Z,3.23
2019-01-15T16:16:37.624Z,4.50
2019-01-15T16:19:40.238Z,5.13
2019-01-15T16:22:37.267Z,4.30
2019-01-15T16:25:20.150Z,5.40
2019-01-15T16:28:06.837Z,3.70
2019-01-15T16:30:54.412Z,4.50
2019-01-15T16:33:43.402Z,4.80
2019-01-15T16:36:23.610Z,5.20
2019-01-15T16:39:20.647Z,4.07
2019-01-15T16:42:11.986Z,3.77
2019-01-15T16:45:06.730Z,4.67
2019-01-15T16:47:45.385Z,4.20
2019-01-15T16:50:51.557Z,4.90
2019-01-15T16:53:35.507Z,4.87
2019-01-15T16:56:20.152Z,4.93
2019-01-15T16:59:29.265Z,3.80
2019-01-15T17:02:08.627Z,4.27
2019-01-15T17:05:12.119Z,3.90
2019-01-15T17:08:12.068Z,5.57
2019-01-15T17:10:50.402Z,3.50
2019-01-15T17:13:41.296Z,4.70
2019-01-15T17:16:41.342Z,4.30
2019-01-15T17:19:32.631Z,5.27
2019-01-15T17:22:32.761Z,4.67
2019-01-15T17:25:19.587Z,7.73
2019-01-15T17:28:00.635Z,4.70
2019-01-15T17:30:47.425Z,6.27
2019-01-15T17:33:34.433Z,4.03
2019-01-15T17:36:22.326Z,5.43
2019-01-15T17:39:09.079Z,4.60
2019-01-15T17:41:47.883Z,3.10
2019-01-15T17:44:31.120Z,3.40
2019-01-15T17:47:18.031Z,3.07
2019-01-15T17:50:04.003Z,4.40
2019-01-15T17:52:51.917Z,5.07
2019-01-15T17:55:38.719Z,3.50
2019-01-15T17:58:29.853Z,3.00
2019-01-15T18:01:14.910Z,3.20
2019-01-15T18:04:17.975Z,4.20
2019-01-15T18:07:09.742Z,2.80
2019-01-15T18:09:57.783Z,3.07
2019-01-15T18:12:46.706Z,3.60
2019-01-15T18:15:34.662Z,3.43
2019-01-15T18:18:29.220Z,3.67
2019-01-15T18:21:16.207Z,3.50
2019-01-15T18:24:04.670Z,3.47
2019-01-15T18:27:10.735Z,4.60
2019-01-15T18:30:01.257Z,3.10
2019-01-15T18:32:47.850Z,4.20
2019-01-15T18:35:37.475Z,3.70
2019-01-15T18:38:16.656Z,4.00
2019-01-15T18:41:03.581Z,3.90
2019-01-15T18:44:01.082Z,4.53
2019-01-15T18:46:47.671Z,3.60
2019-01-15T18:49:41.735Z,4.50
2019-01-15T18:52:38.684Z,4.07
2019-01-15T18:55:21.626Z,3.17
2019-01-15T18:58:13.283Z,4.30
2019-01-15T19:01:06.963Z,3.43
2019-01-15T19:03:53.818Z,3.83
2019-01-15T19:06:43.037Z,3.30
2019-01-15T19:09:26.782Z,3.60
2019-01-15T19:12:06.874Z,4.13
2019-01-15T19:15:13.094Z,3.83
2019-01-15T19:18:10.948Z,4.77
2019-01-15T19:21:02.264Z,3.97
2019-01-15T19:23:49.094Z,4.20
2019-01-15T19:26:49.377Z,5.13
2019-01-15T19:29:36.237Z,4.93
2019-01-15T19:32:42.783Z,4.60
2019-01-15T19:35:29.608Z,5.90
2019-01-15T19:38:20.799Z,5.37
2019-01-15T19:41:11.869Z,3.63
2019-01-15T19:44:11.874Z,4.50
2019-01-15T19:47:02.960Z,4.50
2019-01-15T19:49:49.726Z,4.50
2019-01-15T19:52:43.845Z,3.43
2019-01-15T19:55:31.916Z,4.93
2019-01-15T19:58:14.933Z,5.20
2019-01-15T20:00:51.307Z,3.97
2019-01-15T20:03:38.459Z,3.43
2019-01-15T20:06:32.655Z,4.57
2019-01-15T20:09:20.742Z,3.63
2019-01-15T20:12:08.999Z,3.80
2019-01-15T20:14:59.946Z,3.67
2019-01-15T20:17:40.351Z,4.07
2019-01-15T20:20:32.128Z,5.03
2019-01-15T20:23:18.950Z,3.13
2019-01-15T20:26:05.815Z,3.20
2019-01-15T20:28:47.815Z,4.07
2019-01-15T20:31:34.759Z,3.60
2019-01-15T20:34:24.055Z,3.80
2019-01-15T20:37:10.871Z,3.63
2019-01-15T20:39:53.878Z,3.73
2019-01-15T20:42:54.187Z,2.47
2019-01-15T20:45:42.802Z,3.77
2019-01-15T20:48:39.704Z,4.20
2019-01-15T20:51:31.067Z,5.63
2019-01-15T20:54:11.824Z,4.73
2019-01-15T20:57:02.823Z,3.93
2019-01-15T20:59:51.053Z,4.37
2019-01-15T21:02:37.799Z,3.67
2019-01-15T21:05:18.759Z,4.07
2019-01-15T21:08:06.753Z,2.73
2019-01-15T21:11:07.170Z,3.73
2019-01-15T21:14:02.945Z,2.70
2019-01-15T21:16:49.574Z,3.10
2019-01-15T21:19:36.351Z,4.13
2019-01-15T21:22:23.443Z,3.07
2019-01-15T21:25:05.688Z,4.10
2019-01-15T21:27:53.740Z,3.37
2019-01-15T21:30:40.927Z,3.60
2019-01-15T21:33:27.739Z,4.33
2019-01-15T21:36:18.826Z,3.37
2019-01-15T21:39:13.033Z,3.77
2019-01-15T21:41:52.359Z,4.00
2019-01-15T21:44:40.519Z,2.73
2019-01-15T21:47:27.267Z,4.47
2019-01-15T21:50:27.508Z,4.93
2019-01-15T21:53:27.643Z,3.00
2019-01-15T21:56:18.754Z,2.90
2019-01-15T21:59:05.463Z,4.27
2019-01-15T22:02:11.932Z,2.60
2019-01-15T22:05:00.003Z,3.90
2019-01-15T22:07:46.757Z,4.40
2019-01-15T22:10:33.796Z,3.10
2019-01-15T22:13:19.355Z,6.00
2019-01-15T22:16:16.562Z,2.47
2019-01-15T22:18:55.416Z,3.20
2019-01-15T22:21:39.328Z,3.47
2019-01-15T22:24:19.070Z,3.30
2019-01-15T22:27:01.218Z,3.57
2019-01-15T22:29:41.263Z,3.03
2019-01-15T22:32:32.244Z,4.20
2019-01-15T22:35:26.054Z,3.37
2019-01-15T22:38:16.856Z,4.37
2019-01-15T22:41:03.862Z,4.20
2019-01-15T22:43:54.064Z,3.00
2019-01-15T22:46:49.893Z,3.60
2019-01-15T22:49:46.830Z,3.33
2019-01-15T22:52:37.641Z,3.33
2019-01-15T22:55:35.127Z,4.93
2019-01-15T22:58:26.857Z,3.80
2019-01-15T23:01:24.133Z,3.30
2019-01-15T23:04:30.296Z,3.33
2019-01-15T23:07:16.983Z,3.10
2019-01-15T23:10:00.568Z,2.67
2019-01-15T23:12:51.490Z,2.80
2019-01-15T23:15:30.794Z,2.07
2019-01-15T23:18:17.334Z,2.73
2019-01-15T23:21:13.522Z,4.30
2019-01-15T23:24:19.844Z,2.70
2019-01-15T23:27:07.254Z,3.43
2019-01-15T23:29:55.258Z,3.63
2019-01-15T23:32:46.170Z,2.70
2019-01-15T23:35:25.027Z,3.30
2019-01-15T23:38:28.195Z,3.63
2019-01-15T23:41:22.299Z,4.40
2019-01-15T23:44:07.324Z,3.40
2019-01-15T23:46:55.369Z,3.77
2019-01-15T23:49:37.989Z,3.63
2019-01-15T23:52:20.921Z,3.33
2019-01-15T23:55:12.006Z,2.70
2019-01-15T23:58:15.195Z,2.63
